createdAt,value
2019-05-02T00:00:21.396Z,7.83
2019-05-02T00:02:52.421Z,7.97
2019-05-02T00:05:27.462Z,7.57
2019-05-02T00:07:58.457Z,8.13
2019-05-02T00:10:29.110Z,7.70
2019-05-02T00:12:59.706Z,7.43
2019-05-02T00:15:33.129Z,7.50
2019-05-02T00:18:02.767Z,7.73
2019-05-02T00:20:33.298Z,7.37
2019-05-02T00:23:03.946Z,6.97
2019-05-02T00:25:34.533Z,7.03
2019-05-02T00:28:07.687Z,7.33
2019-05-02T00:30:37.671Z,7.22
2019-05-02T00:33:10.455Z,7.17
2019-05-02T00:35:40.968Z,7.03
2019-05-02T00:38:12.755Z,6.80
2019-05-02T00:40:46.096Z,7.70
2019-05-02T00:43:15.296Z,7.17
2019-05-02T00:45:45.767Z,7.20
2019-05-02T00:48:25.026Z,7.67
2019-05-02T00:50:55.505Z,7.43
2019-05-02T00:53:26.363Z,7.60
2019-05-02T00:55:56.834Z,8.10
2019-05-02T00:58:31.941Z,7.23
2019-05-02T01:01:29.667Z,8.27
2019-05-02T01:04:00.817Z,7.63
2019-05-02T01:06:31.412Z,7.30
2019-05-02T01:09:05.869Z,7.10
2019-05-02T01:11:35.229Z,7.37
2019-05-02T01:14:09.447Z,7.43
2019-05-02T01:16:39.915Z,7.47
2019-05-02T01:19:12.218Z,7.40
2019-05-02T01:21:43.039Z,7.50
2019-05-02T01:24:13.707Z,6.23
2019-05-02T01:26:53.451Z,6.10
2019-05-02T01:29:29.844Z,6.20
2019-05-02T01:32:30.024Z,5.70
2019-05-02T01:35:22.208Z,6.23
2019-05-02T01:38:17.441Z,5.20
2019-05-02T01:40:53.095Z,5.53
2019-05-02T01:43:32.275Z,5.30
2019-05-02T01:46:02.790Z,5.60
2019-05-02T01:48:33.254Z,5.23
2019-05-02T01:51:04.267Z,4.90
2019-05-02T01:53:35.920Z,4.83
2019-05-02T01:56:06.383Z,5.07
2019-05-02T01:58:36.875Z,5.77
2019-05-02T02:01:07.342Z,6.03
2019-05-02T02:03:40.660Z,5.83
2019-05-02T02:06:10.256Z,5.97
2019-05-02T02:08:40.779Z,5.93
2019-05-02T02:11:11.298Z,6.50
2019-05-02T02:13:41.822Z,6.07
2019-05-02T02:16:12.307Z,6.50
2019-05-02T02:18:49.298Z,6.70
2019-05-02T02:21:38.558Z,6.83
2019-05-02T02:24:13.144Z,6.95
2019-05-02T02:26:48.114Z,6.90
2019-05-02T02:29:15.946Z,7.13
2019-05-02T02:31:48.564Z,6.80
2019-05-02T02:34:21.255Z,7.80
2019-05-02T02:36:50.688Z,7.37
2019-05-02T02:39:21.182Z,8.50
2019-05-02T02:41:53.994Z,7.87
2019-05-02T02:44:48.921Z,8.40
2019-05-02T02:47:21.080Z,8.13
2019-05-02T02:49:55.755Z,9.10
2019-05-02T02:55:00.871Z,8.77
2019-05-02T02:57:42.611Z,8.03
2019-05-02T03:00:27.559Z,8.70
2019-05-02T03:03:09.896Z,9.77
2019-05-02T03:09:31.629Z,8.27
2019-05-02T03:15:20.934Z,8.87
2019-05-02T03:18:02.415Z,8.83
2019-05-02T03:20:45.063Z,8.37
2019-05-02T03:26:15.395Z,9.73
2019-05-02T03:32:29.891Z,8.57
2019-05-02T03:34:53.751Z,8.77
2019-05-02T03:37:34.996Z,8.60
2019-05-02T03:40:17.324Z,9.10
2019-05-02T03:43:27.589Z,9.13
2019-05-02T03:46:13.411Z,8.23
2019-05-02T03:49:06.089Z,8.60
2019-05-02T03:51:36.368Z,8.80
2019-05-02T03:54:20.128Z,8.33
2019-05-02T03:57:02.891Z,9.23
2019-05-02T03:59:38.647Z,8.00
2019-05-02T04:02:24.574Z,8.77
2019-05-02T04:08:20.741Z,7.30
2019-05-02T04:11:01.827Z,7.83
2019-05-02T04:16:27.409Z,7.20
2019-05-02T04:19:34.223Z,7.23
2019-05-02T04:22:12.577Z,6.30
2019-05-02T04:24:56.903Z,6.10
2019-05-02T04:27:39.727Z,6.57
2019-05-02T04:30:22.221Z,6.03
2019-05-02T04:35:36.380Z,5.70
2019-05-02T04:38:39.043Z,5.83
2019-05-02T04:41:31.696Z,5.67
2019-05-02T04:44:13.387Z,5.70
2019-05-02T04:47:02.590Z,5.80
2019-05-02T04:49:39.888Z,5.27
2019-05-02T04:52:22.547Z,4.90
2019-05-02T04:55:14.661Z,5.03
2019-05-02T04:57:50.936Z,5.43
2019-05-02T05:00:32.556Z,5.00
2019-05-02T05:03:17.229Z,5.00
2019-05-02T05:08:41.261Z,4.80
2019-05-02T05:11:41.843Z,4.73
2019-05-02T05:14:23.696Z,5.60
2019-05-02T05:17:07.874Z,4.63
2019-05-02T05:19:49.006Z,5.10
2019-05-02T05:22:36.477Z,5.00
2019-05-02T05:25:21.341Z,4.57
2019-05-02T05:28:20.499Z,4.07
2019-05-02T05:34:37.971Z,4.70
2019-05-02T05:37:20.643Z,4.70
2019-05-02T05:40:05.673Z,4.20
2019-05-02T05:46:18.492Z,4.27
2019-05-02T05:48:48.991Z,4.00
2019-05-02T05:51:38.600Z,4.23
2019-05-02T05:54:47.384Z,4.80
2019-05-02T05:57:49.999Z,3.67
2019-05-02T06:00:55.350Z,4.10
2019-05-02T06:03:54.287Z,3.87
2019-05-02T06:10:13.246Z,3.93
2019-05-02T06:16:59.180Z,3.50
2019-05-02T06:23:10.423Z,3.87
2019-05-02T06:26:13.758Z,3.23
2019-05-02T06:40:14.331Z,3.63
2019-05-02T06:45:40.211Z,3.10
2019-05-02T06:48:22.348Z,3.30
2019-05-02T06:51:04.647Z,2.93
2019-05-02T06:53:48.789Z,2.93
2019-05-02T06:59:58.257Z,2.60
2019-05-02T07:02:58.413Z,3.07
2019-05-02T07:09:17.936Z,2.70
2019-05-02T07:15:59.491Z,2.70
2019-05-02T07:19:00.891Z,2.50
2019-05-02T07:25:08.867Z,2.50
2019-05-02T07:31:13.917Z,2.57
2019-05-02T07:37:03.043Z,2.33
2019-05-02T07:39:45.682Z,2.33
2019-05-02T07:42:46.964Z,2.17
2019-05-02T07:48:59.396Z,2.30
2019-05-02T08:09:39.238Z,2.80
2019-05-02T08:12:39.451Z,2.50
2019-05-02T08:19:01.297Z,2.07
2019-05-02T08:25:12.082Z,2.63
2019-05-02T08:31:51.214Z,2.50
2019-05-02T08:37:35.253Z,2.17
2019-05-02T08:57:25.478Z,1.97
2019-05-02T09:04:05.390Z,2.00
2019-05-02T09:06:48.435Z,1.98
2019-05-02T09:09:30.492Z,2.03
2019-05-02T09:12:42.342Z,1.80
2019-05-02T09:19:26.379Z,2.30
2019-05-02T09:22:07.621Z,1.60
2019-05-02T09:24:52.014Z,1.55
2019-05-02T09:27:53.314Z,1.90
2019-05-02T09:30:57.350Z,1.50
2019-05-02T09:33:45.218Z,1.43
2019-05-02T09:36:22.646Z,1.40
2019-05-02T09:39:34.699Z,1.40
2019-05-02T09:42:32.520Z,1.43
2019-05-02T09:45:37.290Z,1.30
2019-05-02T09:48:35.876Z,1.30
2019-05-02T09:51:36.640Z,1.40
2019-05-02T09:54:42.539Z,1.20
2019-05-02T09:57:42.724Z,1.37
2019-05-02T10:00:48.402Z,1.53
2019-05-02T10:06:59.684Z,1.40
2019-05-02T10:10:06.738Z,1.90
2019-05-02T10:13:08.631Z,1.37
2019-05-02T10:16:09.777Z,1.70
2019-05-02T10:19:11.473Z,1.93
2019-05-02T10:22:26.561Z,1.43
2019-05-02T10:29:09.120Z,1.20
2019-05-02T10:32:16.747Z,0.70
2019-05-02T10:41:39.777Z,0.30
2019-05-02T10:44:52.045Z,0.60
2019-05-02T10:50:38.375Z,0.70
2019-05-02T10:53:21.782Z,0.50
2019-05-02T10:59:05.899Z,0.50
2019-05-02T11:02:07.021Z,0.47
2019-05-02T11:08:36.859Z,0.30
2019-05-02T11:11:39.064Z,0.50
2019-05-02T11:20:37.383Z,0.60
2019-05-02T11:23:38.513Z,0.80
2019-05-02T11:29:57.290Z,0.67
2019-05-02T11:36:41.520Z,0.60
2019-05-02T11:39:48.505Z,0.60
2019-05-02T11:42:52.583Z,0.60
2019-05-02T11:46:01.418Z,0.50
2019-05-02T11:58:57.867Z,0.60
2019-05-02T12:05:16.495Z,0.70
2019-05-02T12:14:56.615Z,0.60
2019-05-02T12:21:19.272Z,0.80
2019-05-02T12:31:08.055Z,0.70
2019-05-02T12:34:09.504Z,0.80
2019-05-02T12:43:32.822Z,1.20
2019-05-02T12:49:43.754Z,0.70
2019-05-02T12:52:44.519Z,0.90
2019-05-02T12:55:46.007Z,1.10
2019-05-02T13:01:57.518Z,0.70
2019-05-02T13:04:59.495Z,0.57
2019-05-02T13:08:02.536Z,0.80
2019-05-02T13:11:06.644Z,1.30
2019-05-02T13:20:29.355Z,0.80
2019-05-02T13:23:12.793Z,0.80
2019-05-02T13:26:24.961Z,0.70
2019-05-02T13:29:03.861Z,0.70
2019-05-02T13:32:08.825Z,0.80
2019-05-02T13:35:14.603Z,0.80
2019-05-02T13:38:02.759Z,1.20
2019-05-02T13:44:14.179Z,0.70
2019-05-02T13:50:03.295Z,0.60
2019-05-02T13:53:06.455Z,0.60
2019-05-02T13:59:13.042Z,0.87
2019-05-02T14:01:59.340Z,0.70
2019-05-02T14:04:41.711Z,0.50
2019-05-02T14:11:19.194Z,0.60
2019-05-02T14:14:39.871Z,0.77
2019-05-02T14:20:49.630Z,0.50
2019-05-02T14:23:55.907Z,0.70
2019-05-02T14:36:11.691Z,0.87
2019-05-02T14:42:29.735Z,0.40
2019-05-02T14:45:27.239Z,0.73
2019-05-02T14:51:28.615Z,0.50
2019-05-02T14:54:29.728Z,0.60
2019-05-02T14:57:32.525Z,0.77
2019-05-02T15:03:42.382Z,0.80
2019-05-02T15:06:47.454Z,0.70
2019-05-02T15:09:52.551Z,0.50
2019-05-02T15:28:30.585Z,1.07
2019-05-02T15:34:17.013Z,0.60
2019-05-02T15:42:49.044Z,0.60
2019-05-02T15:45:56.212Z,0.90
2019-05-02T15:48:57.252Z,0.70
2019-05-02T15:51:59.755Z,1.17
2019-05-02T16:00:41.901Z,1.00
2019-05-02T16:06:38.071Z,0.50
2019-05-02T16:09:21.590Z,0.63
2019-05-02T16:12:05.139Z,0.70
2019-05-02T16:15:13.170Z,0.90
2019-05-02T16:18:09.334Z,0.73
2019-05-02T16:27:11.553Z,0.90
2019-05-02T16:30:44.223Z,0.80
2019-05-02T16:33:38.623Z,0.90
2019-05-02T16:46:46.412Z,0.87
2019-05-02T16:56:03.019Z,0.90
2019-05-02T17:01:27.197Z,1.00
2019-05-02T17:11:15.834Z,0.80
2019-05-02T17:13:58.155Z,1.50
2019-05-02T17:16:47.079Z,0.80
2019-05-02T17:19:46.384Z,0.70
2019-05-02T17:25:32.208Z,0.70
2019-05-02T17:28:14.242Z,0.60
2019-05-02T17:30:56.962Z,0.90
2019-05-02T17:33:58.151Z,0.87
2019-05-02T17:43:45.343Z,0.70
2019-05-02T17:46:50.796Z,1.00
2019-05-02T17:49:36.969Z,0.70
2019-05-02T17:55:40.294Z,0.90
2019-05-02T17:58:19.055Z,0.93
2019-05-02T18:04:35.528Z,0.80
2019-05-02T18:10:21.909Z,0.70
2019-05-02T18:13:00.017Z,0.97
2019-05-02T18:15:46.003Z,0.73
2019-05-02T18:18:28.211Z,0.80
2019-05-02T18:21:30.168Z,0.80
2019-05-02T18:24:30.440Z,0.93
2019-05-02T18:27:14.144Z,0.80
2019-05-02T18:33:29.039Z,0.90
2019-05-02T18:36:10.771Z,0.90
2019-05-02T18:45:58.115Z,1.10
2019-05-02T18:48:42.093Z,0.90
2019-05-02T18:58:27.560Z,0.63
2019-05-02T19:01:15.968Z,0.70
2019-05-02T19:07:54.827Z,1.00
2019-05-02T19:17:57.434Z,0.70
2019-05-02T20:47:59.316Z,0.70
2019-05-02T20:50:42.421Z,0.73
2019-05-02T20:57:02.560Z,0.60
2019-05-02T20:59:45.563Z,0.90
2019-05-02T21:06:02.971Z,0.77
2019-05-02T21:12:24.635Z,1.30
2019-05-02T21:15:07.099Z,1.43
2019-05-02T21:17:50.128Z,1.30
2019-05-02T21:23:17.583Z,0.83
2019-05-02T21:26:18.807Z,0.90
2019-05-02T21:31:51.997Z,0.80
2019-05-02T21:34:37.671Z,1.03
2019-05-02T21:37:19.799Z,0.90
2019-05-02T21:43:25.752Z,0.90
2019-05-02T21:53:17.643Z,0.70
2019-05-02T21:56:26.095Z,1.13
2019-05-02T21:59:27.707Z,0.70
2019-05-02T22:02:17.895Z,1.00
2019-05-02T22:05:03.471Z,1.07
2019-05-02T22:11:12.348Z,0.80
2019-05-02T22:13:43.296Z,0.70
2019-05-02T22:16:16.738Z,0.50
2019-05-02T22:18:47.288Z,0.60
2019-05-02T22:21:17.726Z,0.50
2019-05-02T22:23:48.226Z,0.70
2019-05-02T22:26:18.682Z,0.50
2019-05-02T22:28:49.171Z,0.70
2019-05-02T22:31:19.635Z,0.60
2019-05-02T22:33:52.707Z,0.57
2019-05-02T22:36:24.525Z,0.50
2019-05-02T22:39:08.562Z,0.70
2019-05-02T22:41:39.047Z,0.83
2019-05-02T22:44:09.663Z,0.67
2019-05-02T22:46:42.864Z,0.80
2019-05-02T22:49:14.960Z,0.60
2019-05-02T22:51:45.695Z,0.63
2019-05-02T22:54:26.766Z,0.73
2019-05-02T22:56:48.230Z,0.80
2019-05-02T22:59:18.710Z,0.73
2019-05-02T23:01:49.186Z,0.80
2019-05-02T23:04:23.315Z,0.67
2019-05-02T23:06:52.916Z,0.70
2019-05-02T23:09:23.689Z,0.63
2019-05-02T23:11:54.338Z,0.63
2019-05-02T23:14:24.899Z,0.70
2019-05-02T23:16:55.383Z,0.50
2019-05-02T23:19:25.930Z,0.50
2019-05-02T23:21:56.419Z,0.60
2019-05-02T23:24:38.650Z,0.68
2019-05-02T23:27:24.386Z,0.72
2019-05-02T23:29:54.955Z,0.50
2019-05-02T23:32:25.437Z,0.63
2019-05-02T23:34:55.938Z,0.77
2019-05-02T23:37:26.464Z,0.80
2019-05-02T23:39:57.067Z,0.70
2019-05-02T23:42:27.515Z,0.70
2019-05-02T23:44:58.007Z,0.80
2019-05-02T23:47:28.515Z,0.53
2019-05-02T23:49:58.994Z,0.90
2019-05-02T23:52:31.548Z,0.50
2019-05-02T23:55:03.023Z,0.70
2019-05-02T23:57:33.542Z,0.57
